sensor_id;sensor_type;location;lat;lon;timestamp;pressure;altitude;pressure_sealevel;temperature;humidity
36748;BME280;22716;51.556;5.080;2023-09-12T00:04:10;100615.09;;;21.03;100.00
36748;BME280;22716;51.556;5.080;2023-09-12T00:06:39;100617.06;;;20.99;100.00
36748;BME280;22716;51.556;5.080;2023-09-12T00:09:07;100615.09;;;21.03;100.00
36748;BME280;22716;51.556;5.080;2023-09-12T00:11:37;100609.25;;;20.96;100.00
36748;BME280;22716;51.556;5.080;2023-09-12T00:14:05;100612.88;;;20.95;100.00
36748;BME280;22716;51.556;5.080;2023-09-12T00:16:34;100602.56;;;20.89;100.00
36748;BME280;22716;51.556;5.080;2023-09-12T00:19:02;100615.78;;;20.91;100.00
36748;BME280;22716;51.556;5.080;2023-09-12T00:21:33;100612.34;;;20.89;100.00
36748;BME280;22716;51.556;5.080;2023-09-12T00:24:02;100613.75;;;20.96;100.00
36748;BME280;22716;51.556;5.080;2023-09-12T00:26:31;100616.56;;;20.93;100.00
36748;BME280;22716;51.556;5.080;2023-09-12T00:28:59;100615.03;;;20.89;100.00
36748;BME280;22716;51.556;5.080;2023-09-12T00:31:28;100610.44;;;20.91;100.00
36748;BME280;22716;51.556;5.080;2023-09-12T00:33:56;100614.44;;;20.84;100.00
36748;BME280;22716;51.556;5.080;2023-09-12T00:36:25;100615.38;;;20.83;100.00
36748;BME280;22716;51.556;5.080;2023-09-12T00:38:56;100617.84;;;20.86;100.00
36748;BME280;22716;51.556;5.080;2023-09-12T00:41:25;100618.72;;;20.86;100.00
36748;BME280;22716;51.556;5.080;2023-09-12T00:43:53;100601.47;;;20.78;100.00
36748;BME280;22716;51.556;5.080;2023-09-12T00:46:23;100603.84;;;20.82;100.00
36748;BME280;22716;51.556;5.080;2023-09-12T00:48:53;100604.97;;;20.78;100.00
36748;BME280;22716;51.556;5.080;2023-09-12T00:51:24;100596.72;;;20.67;100.00
36748;BME280;22716;51.556;5.080;2023-09-12T00:53:56;100594.31;;;20.62;100.00
36748;BME280;22716;51.556;5.080;2023-09-12T00:56:26;100594.50;;;20.59;100.00
36748;BME280;22716;51.556;5.080;2023-09-12T00:58:55;100597.38;;;20.55;100.00
36748;BME280;22716;51.556;5.080;2023-09-12T01:01:24;100594.66;;;20.56;100.00
36748;BME280;22716;51.556;5.080;2023-09-12T01:03:54;100595.69;;;20.54;100.00
36748;BME280;22716;51.556;5.080;2023-09-12T01:06:24;100596.63;;;20.53;100.00
36748;BME280;22716;51.556;5.080;2023-09-12T01:08:56;100591.56;;;20.48;100.00
36748;BME280;22716;51.556;5.080;2023-09-12T01:11:25;100596.91;;;20.48;100.00
36748;BME280;22716;51.556;5.080;2023-09-12T01:13:54;100599.63;;;20.47;100.00
36748;BME280;22716;51.556;5.080;2023-09-12T01:16:23;100600.47;;;20.47;100.00
36748;BME280;22716;51.556;5.080;2023-09-12T01:18:52;100598.94;;;20.43;100.00
36748;BME280;22716;51.556;5.080;2023-09-12T01:24:57;100594.56;;;20.42;100.00
36748;BME280;22716;51.556;5.080;2023-09-12T01:27:34;100596.03;;;20.48;100.00
36748;BME280;22716;51.556;5.080;2023-09-12T01:30:05;100589.84;;;20.47;100.00
36748;BME280;22716;51.556;5.080;2023-09-12T01:32:37;100589.06;;;20.45;100.00
36748;BME280;22716;51.556;5.080;2023-09-12T01:35:08;100591.28;;;20.37;100.00
36748;BME280;22716;51.556;5.080;2023-09-12T01:37:36;100594.31;;;20.31;100.00
36748;BME280;22716;51.556;5.080;2023-09-12T01:40:06;100602.19;;;20.33;100.00
36748;BME280;22716;51.556;5.080;2023-09-12T01:42:42;100598.66;;;20.32;100.00
36748;BME280;22716;51.556;5.080;2023-09-12T01:45:15;100594.97;;;20.35;100.00
36748;BME280;22716;51.556;5.080;2023-09-12T01:47:45;100591.38;;;20.36;100.00
36748;BME280;22716;51.556;5.080;2023-09-12T01:50:16;100595.81;;;20.35;100.00
36748;BME280;22716;51.556;5.080;2023-09-12T01:52:46;100596.00;;;20.32;100.00
36748;BME280;22716;51.556;5.080;2023-09-12T01:55:15;100597.88;;;20.30;100.00
36748;BME280;22716;51.556;5.080;2023-09-12T01:57:47;100600.72;;;20.27;100.00
36748;BME280;22716;51.556;5.080;2023-09-12T02:00:18;100596.56;;;20.22;100.00
36748;BME280;22716;51.556;5.080;2023-09-12T02:02:48;100615.06;;;20.23;100.00
36748;BME280;22716;51.556;5.080;2023-09-12T02:05:18;100600.25;;;20.19;100.00
36748;BME280;22716;51.556;5.080;2023-09-12T02:07:49;100611.72;;;20.20;100.00
36748;BME280;22716;51.556;5.080;2023-09-12T02:10:17;100606.66;;;20.15;100.00
36748;BME280;22716;51.556;5.080;2023-09-12T02:12:49;100601.19;;;20.18;100.00
36748;BME280;22716;51.556;5.080;2023-09-12T02:15:17;100601.28;;;20.17;100.00
36748;BME280;22716;51.556;5.080;2023-09-12T02:17:46;100599.78;;;20.11;100.00
36748;BME280;22716;51.556;5.080;2023-09-12T02:20:16;100598.13;;;20.08;100.00
36748;BME280;22716;51.556;5.080;2023-09-12T02:22:44;100587.50;;;20.08;100.00
36748;BME280;22716;51.556;5.080;2023-09-12T02:25:13;100603.63;;;20.05;100.00
36748;BME280;22716;51.556;5.080;2023-09-12T02:27:42;100593.94;;;20.04;100.00
36748;BME280;22716;51.556;5.080;2023-09-12T02:30:13;100604.47;;;20.06;100.00
36748;BME280;22716;51.556;5.080;2023-09-12T02:32:42;100612.56;;;20.04;100.00
36748;BME280;22716;51.556;5.080;2023-09-12T02:35:11;100608.34;;;20.00;100.00
36748;BME280;22716;51.556;5.080;2023-09-12T02:37:39;100601.38;;;19.98;100.00
36748;BME280;22716;51.556;5.080;2023-09-12T02:40:09;100602.25;;;19.98;100.00
36748;BME280;22716;51.556;5.080;2023-09-12T02:42:40;100597.09;;;19.95;100.00
36748;BME280;22716;51.556;5.080;2023-09-12T02:45:09;100599.75;;;19.95;100.00
36748;BME280;22716;51.556;5.080;2023-09-12T02:47:40;100599.66;;;19.97;100.00
36748;BME280;22716;51.556;5.080;2023-09-12T02:50:09;100591.06;;;19.92;100.00
36748;BME280;22716;51.556;5.080;2023-09-12T02:52:37;100587.63;;;19.90;100.00
36748;BME280;22716;51.556;5.080;2023-09-12T02:55:07;100584.34;;;19.85;100.00
36748;BME280;22716;51.556;5.080;2023-09-12T02:57:36;100584.66;;;19.79;100.00
36748;BME280;22716;51.556;5.080;2023-09-12T03:00:07;100583.19;;;19.73;100.00
36748;BME280;22716;51.556;5.080;2023-09-12T03:02:37;100568.50;;;19.66;100.00
36748;BME280;22716;51.556;5.080;2023-09-12T03:05:08;100573.56;;;19.71;100.00
36748;BME280;22716;51.556;5.080;2023-09-12T03:07:37;100569.38;;;19.67;100.00
36748;BME280;22716;51.556;5.080;2023-09-12T03:10:06;100581.56;;;19.71;100.00
36748;BME280;22716;51.556;5.080;2023-09-12T03:12:35;100576.81;;;19.60;100.00
36748;BME280;22716;51.556;5.080;2023-09-12T03:15:06;100587.34;;;19.62;100.00
36748;BME280;22716;51.556;5.080;2023-09-12T03:17:35;100585.78;;;19.58;100.00
36748;BME280;22716;51.556;5.080;2023-09-12T03:20:05;100584.78;;;19.60;100.00
36748;BME280;22716;51.556;5.080;2023-09-12T03:22:37;100577.19;;;19.52;100.00
36748;BME280;22716;51.556;5.080;2023-09-12T03:25:07;100575.22;;;19.56;100.00
36748;BME280;22716;51.556;5.080;2023-09-12T03:27:35;100584.94;;;19.57;100.00
36748;BME280;22716;51.556;5.080;2023-09-12T03:30:06;100592.81;;;19.58;100.00
36748;BME280;22716;51.556;5.080;2023-09-12T03:32:34;100592.97;;;19.55;100.00
36748;BME280;22716;51.556;5.080;2023-09-12T03:35:04;100598.28;;;19.55;100.00
36748;BME280;22716;51.556;5.080;2023-09-12T03:37:32;100588.50;;;19.56;100.00
36748;BME280;22716;51.556;5.080;2023-09-12T03:40:09;100591.16;;;19.56;100.00
36748;BME280;22716;51.556;5.080;2023-09-12T03:42:38;100581.47;;;19.55;100.00
36748;BME280;22716;51.556;5.080;2023-09-12T03:45:08;100578.91;;;19.53;100.00
36748;BME280;22716;51.556;5.080;2023-09-12T03:47:37;100566.34;;;19.40;100.00
36748;BME280;22716;51.556;5.080;2023-09-12T03:50:07;100584.31;;;19.52;100.00
36748;BME280;22716;51.556;5.080;2023-09-12T03:52:35;100582.03;;;19.44;100.00
36748;BME280;22716;51.556;5.080;2023-09-12T03:55:05;100586.47;;;19.44;100.00
36748;BME280;22716;51.556;5.080;2023-09-12T03:57:36;100597.09;;;19.44;100.00
36748;BME280;22716;51.556;5.080;2023-09-12T04:00:06;100600.47;;;19.47;100.00
36748;BME280;22716;51.556;5.080;2023-09-12T04:02:35;100601.50;;;19.45;100.00
36748;BME280;22716;51.556;5.080;2023-09-12T04:05:04;100597.03;;;19.45;100.00
36748;BME280;22716;51.556;5.080;2023-09-12T04:07:33;100578.34;;;19.47;100.00
36748;BME280;22716;51.556;5.080;2023-09-12T04:10:01;100576.41;;;19.50;100.00
36748;BME280;22716;51.556;5.080;2023-09-12T04:12:30;100578.13;;;19.51;100.00
36748;BME280;22716;51.556;5.080;2023-09-12T04:15:02;100571.25;;;19.47;100.00
36748;BME280;22716;51.556;5.080;2023-09-12T04:17:30;100580.25;;;19.45;100.00
36748;BME280;22716;51.556;5.080;2023-09-12T04:19:59;100569.81;;;19.40;100.00
36748;BME280;22716;51.556;5.080;2023-09-12T04:22:29;100575.34;;;19.36;100.00
36748;BME280;22716;51.556;5.080;2023-09-12T04:24:57;100577.94;;;19.37;100.00
36748;BME280;22716;51.556;5.080;2023-09-12T04:27:26;100575.78;;;19.45;100.00
36748;BME280;22716;51.556;5.080;2023-09-12T04:29:54;100569.47;;;19.48;100.00
36748;BME280;22716;51.556;5.080;2023-09-12T04:32:25;100570.06;;;19.53;100.00
36748;BME280;22716;51.556;5.080;2023-09-12T04:34:54;100561.31;;;19.51;100.00
36748;BME280;22716;51.556;5.080;2023-09-12T04:37:23;100568.19;;;19.55;100.00
36748;BME280;22716;51.556;5.080;2023-09-12T04:39:51;100557.75;;;19.52;100.00
36748;BME280;22716;51.556;5.080;2023-09-12T04:42:20;100562.66;;;19.60;100.00
36748;BME280;22716;51.556;5.080;2023-09-12T04:44:49;100556.63;;;19.56;100.00
36748;BME280;22716;51.556;5.080;2023-09-12T04:47:18;100561.53;;;19.46;100.00
36748;BME280;22716;51.556;5.080;2023-09-12T04:49:49;100560.19;;;19.38;100.00
36748;BME280;22716;51.556;5.080;2023-09-12T04:52:18;100569.53;;;19.46;100.00
36748;BME280;22716;51.556;5.080;2023-09-12T04:54:46;100567.56;;;19.50;100.00
36748;BME280;22716;51.556;5.080;2023-09-12T04:57:15;100570.94;;;19.53;100.00
36748;BME280;22716;51.556;5.080;2023-09-12T04:59:43;100569.75;;;19.59;100.00
36748;BME280;22716;51.556;5.080;2023-09-12T05:02:12;100578.44;;;19.63;100.00
36748;BME280;22716;51.556;5.080;2023-09-12T05:04:41;100574.00;;;19.63;100.00
36748;BME280;22716;51.556;5.080;2023-09-12T05:07:12;100565.06;;;19.64;100.00
36748;BME280;22716;51.556;5.080;2023-09-12T05:09:41;100561.00;;;19.57;100.00
36748;BME280;22716;51.556;5.080;2023-09-12T05:12:09;100564.69;;;19.54;100.00
36748;BME280;22716;51.556;5.080;2023-09-12T05:14:38;100563.13;;;19.50;100.00
36748;BME280;22716;51.556;5.080;2023-09-12T05:17:07;100562.03;;;19.54;100.00
36748;BME280;22716;51.556;5.080;2023-09-12T05:19:35;100543.03;;;19.45;100.00
36748;BME280;22716;51.556;5.080;2023-09-12T05:22:04;100557.50;;;19.56;100.00
36748;BME280;22716;51.556;5.080;2023-09-12T05:24:35;100566.16;;;19.60;100.00
36748;BME280;22716;51.556;5.080;2023-09-12T05:27:04;100560.75;;;19.62;100.00
36748;BME280;22716;51.556;5.080;2023-09-12T05:29:32;100552.03;;;19.60;100.00
36748;BME280;22716;51.556;5.080;2023-09-12T05:32:01;100550.44;;;19.55;100.00
36748;BME280;22716;51.556;5.080;2023-09-12T05:34:30;100562.34;;;19.66;100.00
36748;BME280;22716;51.556;5.080;2023-09-12T05:36:58;100560.44;;;19.68;100.00
36748;BME280;22716;51.556;5.080;2023-09-12T05:39:27;100555.13;;;19.68;100.00
36748;BME280;22716;51.556;5.080;2023-09-12T05:41:58;100551.28;;;19.73;100.00
36748;BME280;22716;51.556;5.080;2023-09-12T05:44:27;100550.25;;;19.76;100.00
36748;BME280;22716;51.556;5.080;2023-09-12T05:46:56;100550.41;;;19.73;100.00
36748;BME280;22716;51.556;5.080;2023-09-12T05:49:24;100550.41;;;19.73;100.00
36748;BME280;22716;51.556;5.080;2023-09-12T05:51:53;100561.84;;;19.75;100.00
36748;BME280;22716;51.556;5.080;2023-09-12T05:54:21;100554.75;;;19.75;100.00
36748;BME280;22716;51.556;5.080;2023-09-12T05:56:50;100567.16;;;19.75;100.00
36748;BME280;22716;51.556;5.080;2023-09-12T05:59:22;100568.72;;;19.79;100.00
36748;BME280;22716;51.556;5.080;2023-09-12T06:01:50;100572.22;;;19.79;100.00
36748;BME280;22716;51.556;5.080;2023-09-12T06:04:19;100568.72;;;19.79;100.00
36748;BME280;22716;51.556;5.080;2023-09-12T06:06:48;100560.06;;;19.75;100.00
36748;BME280;22716;51.556;5.080;2023-09-12T06:09:17;100573.97;;;19.80;100.00
36748;BME280;22716;51.556;5.080;2023-09-12T06:11:46;100575.44;;;19.86;100.00
36748;BME280;22716;51.556;5.080;2023-09-12T06:14:14;100579.66;;;19.90;100.00
36748;BME280;22716;51.556;5.080;2023-09-12T06:16:46;100581.47;;;19.89;100.00
36748;BME280;22716;51.556;5.080;2023-09-12T06:19:14;100575.44;;;19.86;100.00
36748;BME280;22716;51.556;5.080;2023-09-12T06:21:45;100593.13;;;19.87;100.00
36748;BME280;22716;51.556;5.080;2023-09-12T06:24:15;100590.28;;;19.90;100.00
36748;BME280;22716;51.556;5.080;2023-09-12T06:26:44;100593.41;;;19.98;100.00
36748;BME280;22716;51.556;5.080;2023-09-12T06:29:13;100598.47;;;20.02;100.00
36748;BME280;22716;51.556;5.080;2023-09-12T06:31:45;100594.97;;;20.02;100.00
36748;BME280;22716;51.556;5.080;2023-09-12T06:34:14;100598.31;;;20.05;100.00
36748;BME280;22716;51.556;5.080;2023-09-12T06:36:42;100595.31;;;20.11;100.00
36748;BME280;22716;51.556;5.080;2023-09-12T06:39:11;100598.69;;;20.15;100.00
36748;BME280;22716;51.556;5.080;2023-09-12T06:41:39;100603.28;;;20.11;100.00
36748;BME280;22716;51.556;5.080;2023-09-12T06:44:08;100610.78;;;20.21;100.00
36748;BME280;22716;51.556;5.080;2023-09-12T06:46:37;100599.38;;;20.19;100.00
36748;BME280;22716;51.556;5.080;2023-09-12T06:49:08;100610.63;;;20.24;100.00
36748;BME280;22716;51.556;5.080;2023-09-12T06:51:36;100610.72;;;20.22;100.00
36748;BME280;22716;51.556;5.080;2023-09-12T06:54:05;100590.69;;;20.15;100.00
36748;BME280;22716;51.556;5.080;2023-09-12T06:56:34;100611.25;;;20.29;100.00
36748;BME280;22716;51.556;5.080;2023-09-12T06:59:03;100621.84;;;20.30;100.00
36748;BME280;22716;51.556;5.080;2023-09-12T07:01:32;100614.88;;;20.28;100.00
36748;BME280;22716;51.556;5.080;2023-09-12T07:04:00;100614.09;;;20.26;100.00
36748;BME280;22716;51.556;5.080;2023-09-12T07:06:32;100624.78;;;20.24;100.00
36748;BME280;22716;51.556;5.080;2023-09-12T07:09:01;100622.06;;;20.26;100.00
36748;BME280;22716;51.556;5.080;2023-09-12T07:11:30;100622.69;;;20.31;100.00
36748;BME280;22716;51.556;5.080;2023-09-12T07:13:58;100610.25;;;20.31;100.00
36748;BME280;22716;51.556;5.080;2023-09-12T07:16:30;100612.16;;;20.45;100.00
36748;BME280;22716;51.556;5.080;2023-09-12T07:18:59;100614.38;;;20.52;100.00
36748;BME280;22716;51.556;5.080;2023-09-12T07:21:32;100607.09;;;20.56;100.00
36748;BME280;22716;51.556;5.080;2023-09-12T07:24:00;100615.63;;;20.62;100.00
36748;BME280;22716;51.556;5.080;2023-09-12T07:26:29;100608.72;;;20.58;100.00
36748;BME280;22716;51.556;5.080;2023-09-12T07:28:58;100605.84;;;20.63;100.00
36748;BME280;22716;51.556;5.080;2023-09-12T07:31:28;100613.22;;;20.74;100.00
36748;BME280;22716;51.556;5.080;2023-09-12T07:33:57;100615.69;;;20.77;100.00
36748;BME280;22716;51.556;5.080;2023-09-12T07:36:25;100612.34;;;20.73;100.00
36748;BME280;22716;51.556;5.080;2023-09-12T07:38:57;100608.66;;;20.76;100.00
36748;BME280;22716;51.556;5.080;2023-09-12T07:41:26;100616.13;;;21.00;100.00
36748;BME280;22716;51.556;5.080;2023-09-12T07:43:54;100619.16;;;21.10;100.00
36748;BME280;22716;51.556;5.080;2023-09-12T07:46:23;100618.13;;;21.28;100.00
36748;BME280;22716;51.556;5.080;2023-09-12T07:48:51;100612.84;;;21.42;100.00
36748;BME280;22716;51.556;5.080;2023-09-12T07:51:20;100619.44;;;21.51;100.00
36748;BME280;22716;51.556;5.080;2023-09-12T07:53:50;100614.13;;;21.65;100.00
36748;BME280;22716;51.556;5.080;2023-09-12T07:56:21;100607.97;;;21.78;100.00
36748;BME280;22716;51.556;5.080;2023-09-12T07:58:49;100608.44;;;21.85;100.00
36748;BME280;22716;51.556;5.080;2023-09-12T08:01:18;100612.50;;;21.92;100.00
36748;BME280;22716;51.556;5.080;2023-09-12T08:03:46;100614.63;;;22.01;100.00
36748;BME280;22716;51.556;5.080;2023-09-12T08:06:16;100623.50;;;22.16;100.00
36748;BME280;22716;51.556;5.080;2023-09-12T08:08:45;100634.44;;;22.25;100.00
36748;BME280;22716;51.556;5.080;2023-09-12T08:11:13;100640.25;;;22.32;100.00
36748;BME280;22716;51.556;5.080;2023-09-12T08:13:47;100637.22;;;22.38;100.00
36748;BME280;22716;51.556;5.080;2023-09-12T08:16:16;100639.81;;;22.40;100.00
36748;BME280;22716;51.556;5.080;2023-09-12T08:18:45;100643.91;;;22.45;100.00
36748;BME280;22716;51.556;5.080;2023-09-12T08:21:14;100655.69;;;22.55;100.00
36748;BME280;22716;51.556;5.080;2023-09-12T08:23:42;100655.16;;;22.64;100.00
36748;BME280;22716;51.556;5.080;2023-09-12T08:26:11;100660.31;;;22.67;100.00
36748;BME280;22716;51.556;5.080;2023-09-12T08:28:39;100660.09;;;22.70;100.00
36748;BME280;22716;51.556;5.080;2023-09-12T08:31:10;100657.34;;;22.72;100.00
36748;BME280;22716;51.556;5.080;2023-09-12T08:33:39;100661.06;;;22.69;100.00
36748;BME280;22716;51.556;5.080;2023-09-12T08:36:08;100657.44;;;22.70;100.00
36748;BME280;22716;51.556;5.080;2023-09-12T08:38:36;100671.94;;;22.80;100.00
36748;BME280;22716;51.556;5.080;2023-09-12T08:41:05;100670.41;;;22.76;100.00
36748;BME280;22716;51.556;5.080;2023-09-12T08:43:34;100680.22;;;22.76;100.00
36748;BME280;22716;51.556;5.080;2023-09-12T08:46:04;100681.66;;;22.81;100.00
36748;BME280;22716;51.556;5.080;2023-09-12T08:48:37;100666.41;;;22.83;100.00
36748;BME280;22716;51.556;5.080;2023-09-12T08:51:07;100659.81;;;22.89;100.00
36748;BME280;22716;51.556;5.080;2023-09-12T08:53:38;100674.19;;;23.01;100.00
36748;BME280;22716;51.556;5.080;2023-09-12T08:56:07;100672.94;;;23.06;100.00
36748;BME280;22716;51.556;5.080;2023-09-12T08:58:36;100680.28;;;23.03;100.00
36748;BME280;22716;51.556;5.080;2023-09-12T09:01:06;100674.44;;;23.10;100.00
36748;BME280;22716;51.556;5.080;2023-09-12T09:03:41;100657.44;;;23.11;100.00
36748;BME280;22716;51.556;5.080;2023-09-12T09:06:10;100675.16;;;23.26;100.00
36748;BME280;22716;51.556;5.080;2023-09-12T09:08:40;100674.97;;;23.29;100.00
36748;BME280;22716;51.556;5.080;2023-09-12T09:11:10;100674.22;;;23.27;100.00
36748;BME280;22716;51.556;5.080;2023-09-12T09:13:38;100676.41;;;23.21;100.00
36748;BME280;22716;51.556;5.080;2023-09-12T09:16:12;100679.56;;;23.27;100.00
36748;BME280;22716;51.556;5.080;2023-09-12T09:18:57;100675.81;;;23.30;100.00
36748;BME280;22716;51.556;5.080;2023-09-12T09:21:27;100675.16;;;23.26;100.00
36748;BME280;22716;51.556;5.080;2023-09-12T09:23:58;100667.66;;;23.19;100.00
36748;BME280;22716;51.556;5.080;2023-09-12T09:26:41;100662.59;;;23.14;100.00
36748;BME280;22716;51.556;5.080;2023-09-12T09:29:14;100655.63;;;23.12;100.00
36748;BME280;22716;51.556;5.080;2023-09-12T09:31:44;100654.03;;;23.09;100.00
36748;BME280;22716;51.556;5.080;2023-09-12T09:34:17;100641.34;;;23.13;100.00
36748;BME280;22716;51.556;5.080;2023-09-12T09:36:48;100641.75;;;23.19;100.00
36748;BME280;22716;51.556;5.080;2023-09-12T09:39:18;100649.59;;;23.22;100.00
36748;BME280;22716;51.556;5.080;2023-09-12T09:41:47;100651.44;;;23.22;100.00
36748;BME280;22716;51.556;5.080;2023-09-12T09:44:17;100646.50;;;23.28;100.00
36748;BME280;22716;51.556;5.080;2023-09-12T09:46:50;100655.94;;;23.34;100.00
36748;BME280;22716;51.556;5.080;2023-09-12T09:49:22;100648.44;;;23.26;100.00
36748;BME280;22716;51.556;5.080;2023-09-12T09:51:50;100646.50;;;23.28;100.00
36748;BME280;22716;51.556;5.080;2023-09-12T09:54:19;100645.25;;;23.34;100.00
36748;BME280;22716;51.556;5.080;2023-09-12T09:56:54;100653.06;;;23.37;100.00
36748;BME280;22716;51.556;5.080;2023-09-12T09:59:24;100648.69;;;23.36;100.00
36748;BME280;22716;51.556;5.080;2023-09-12T10:01:55;100641.13;;;23.42;100.00
36748;BME280;22716;51.556;5.080;2023-09-12T10:04:28;100650.06;;;23.56;100.00
36748;BME280;22716;51.556;5.080;2023-09-12T10:06:57;100648.59;;;23.64;100.00
36748;BME280;22716;51.556;5.080;2023-09-12T10:09:27;100651.38;;;23.75;100.00
36748;BME280;22716;51.556;5.080;2023-09-12T10:11:57;100656.69;;;23.89;100.00
36748;BME280;22716;51.556;5.080;2023-09-12T10:14:27;100647.47;;;23.93;100.00
36748;BME280;22716;51.556;5.080;2023-09-12T10:17:01;100650.88;;;23.95;100.00
36748;BME280;22716;51.556;5.080;2023-09-12T10:19:38;100643.19;;;24.04;100.00
36748;BME280;22716;51.556;5.080;2023-09-12T10:22:11;100650.41;;;24.16;100.00
36748;BME280;22716;51.556;5.080;2023-09-12T10:24:42;100649.22;;;24.20;100.00
36748;BME280;22716;51.556;5.080;2023-09-12T10:27:12;100650.19;;;24.19;100.00
36748;BME280;22716;51.556;5.080;2023-09-12T10:29:41;100647.19;;;24.11;100.00
36748;BME280;22716;51.556;5.080;2023-09-12T10:32:14;100657.66;;;24.14;100.00
36748;BME280;22716;51.556;5.080;2023-09-12T10:34:46;100654.56;;;24.20;100.00
36748;BME280;22716;51.556;5.080;2023-09-12T10:37:16;100654.56;;;24.20;100.00
36748;BME280;22716;51.556;5.080;2023-09-12T10:39:45;100650.50;;;24.27;100.00
36748;BME280;22716;51.556;5.080;2023-09-12T10:42:16;100657.03;;;24.35;100.00
36748;BME280;22716;51.556;5.080;2023-09-12T10:44:46;100651.47;;;24.38;100.00
36748;BME280;22716;51.556;5.080;2023-09-12T10:47:15;100642.00;;;24.58;100.00
36748;BME280;22716;51.556;5.080;2023-09-12T10:49:46;100651.84;;;24.70;100.00
36748;BME280;22716;51.556;5.080;2023-09-12T10:52:24;100643.25;;;24.78;100.00
36748;BME280;22716;51.556;5.080;2023-09-12T10:54:53;100640.69;;;24.76;100.00
36748;BME280;22716;51.556;5.080;2023-09-12T10:57:22;100645.00;;;24.66;100.00
36748;BME280;22716;51.556;5.080;2023-09-12T11:00:12;100644.91;;;24.68;100.00
36748;BME280;22716;51.556;5.080;2023-09-12T11:02:41;100641.13;;;24.70;100.00
36748;BME280;22716;51.556;5.080;2023-09-12T11:05:49;100657.63;;;24.77;100.00
36748;BME280;22716;51.556;5.080;2023-09-12T11:08:20;100653.97;;;24.78;100.00
36748;BME280;22716;51.556;5.080;2023-09-12T11:11:17;100657.09;;;24.84;100.00
36748;BME280;22716;51.556;5.080;2023-09-12T11:13:47;100654.41;;;24.84;100.00
36748;BME280;22716;51.556;5.080;2023-09-12T11:16:32;100655.06;;;24.88;100.00
36748;BME280;22716;51.556;5.080;2023-09-12T11:19:16;100643.47;;;24.87;98.97
36748;BME280;22716;51.556;5.080;2023-09-12T11:21:49;100633.41;;;24.91;99.11
36748;BME280;22716;51.556;5.080;2023-09-12T11:24:19;100633.59;;;25.00;98.55
36748;BME280;22716;51.556;5.080;2023-09-12T11:26:53;100630.00;;;25.13;98.43
36748;BME280;22716;51.556;5.080;2023-09-12T11:29:27;100637.81;;;25.16;98.13
36748;BME280;22716;51.556;5.080;2023-09-12T11:31:58;100648.06;;;25.22;98.32
36748;BME280;22716;51.556;5.080;2023-09-12T11:34:30;100639.78;;;25.25;97.35
36748;BME280;22716;51.556;5.080;2023-09-12T11:37:06;100635.94;;;25.29;96.62
36748;BME280;22716;51.556;5.080;2023-09-12T11:39:36;100631.06;;;25.34;95.77
36748;BME280;22716;51.556;5.080;2023-09-12T11:42:10;100622.94;;;25.35;95.94
36748;BME280;22716;51.556;5.080;2023-09-12T11:44:40;100629.66;;;25.41;94.67
36748;BME280;22716;51.556;5.080;2023-09-12T11:47:10;100640.22;;;25.55;91.92
36748;BME280;22716;51.556;5.080;2023-09-12T11:49:40;100639.06;;;25.70;90.17
36748;BME280;22716;51.556;5.080;2023-09-12T11:52:13;100643.59;;;25.81;89.34
36748;BME280;22716;51.556;5.080;2023-09-12T11:54:43;100642.78;;;25.91;87.59
36748;BME280;22716;51.556;5.080;2023-09-12T11:57:13;100633.03;;;26.01;86.78
36748;BME280;22716;51.556;5.080;2023-09-12T11:59:44;100646.88;;;26.19;85.99
36748;BME280;22716;51.556;5.080;2023-09-12T12:02:14;100633.84;;;26.26;85.53
36748;BME280;22716;51.556;5.080;2023-09-12T12:04:43;100638.97;;;26.29;85.36
36748;BME280;22716;51.556;5.080;2023-09-12T12:07:14;100636.78;;;26.23;85.34
36748;BME280;22716;51.556;5.080;2023-09-12T12:09:43;100645.78;;;26.22;85.08
36748;BME280;22716;51.556;5.080;2023-09-12T12:12:13;100639.06;;;26.16;84.68
36748;BME280;22716;51.556;5.080;2023-09-12T12:14:42;100635.28;;;26.18;84.38
36748;BME280;22716;51.556;5.080;2023-09-12T12:17:12;100641.91;;;26.37;82.38
36748;BME280;22716;51.556;5.080;2023-09-12T12:19:45;100638.47;;;26.57;80.97
36748;BME280;22716;51.556;5.080;2023-09-12T12:22:16;100646.94;;;26.52;80.62
36748;BME280;22716;51.556;5.080;2023-09-12T12:24:46;100636.66;;;26.46;79.45
36748;BME280;22716;51.556;5.080;2023-09-12T12:27:15;100639.22;;;26.37;79.27
36748;BME280;22716;51.556;5.080;2023-09-12T12:29:45;100633.13;;;26.35;80.15
36748;BME280;22716;51.556;5.080;2023-09-12T12:32:15;100630.69;;;26.32;79.18
36748;BME280;22716;51.556;5.080;2023-09-12T12:34:48;100635.66;;;26.36;79.37
36748;BME280;22716;51.556;5.080;2023-09-12T12:37:20;100620.66;;;26.34;78.37
36748;BME280;22716;51.556;5.080;2023-09-12T12:39:48;100626.66;;;26.37;79.01
36748;BME280;22716;51.556;5.080;2023-09-12T12:42:17;100628.97;;;26.31;78.18
36748;BME280;22716;51.556;5.080;2023-09-12T12:44:52;100630.81;;;26.30;79.49
36748;BME280;22716;51.556;5.080;2023-09-12T12:47:22;100632.88;;;26.27;80.39
36748;BME280;22716;51.556;5.080;2023-09-12T12:49:52;100627.50;;;26.27;82.37
36748;BME280;22716;51.556;5.080;2023-09-12T12:52:26;100620.03;;;26.19;82.36
36748;BME280;22716;51.556;5.080;2023-09-12T12:55:04;100620.28;;;26.16;82.38
36748;BME280;22716;51.556;5.080;2023-09-12T12:57:36;100617.72;;;26.14;83.24
36748;BME280;22716;51.556;5.080;2023-09-12T13:00:07;100615.50;;;26.08;83.41
36748;BME280;22716;51.556;5.080;2023-09-12T13:02:37;100609.75;;;26.13;83.46